This is the latest recevied weather packets stored in our database for station/object SR2GKG-13. If no packets are shown the sender has not sent any weather packets the latest 10 day(s).
| Time | Temp. | Humidity | Pressure | Rain* | Wind** | Luminosity | Snow |
|---|---|---|---|---|---|---|---|
| 1777652631 | 21.67° C | 27% | 1012.6 hPa | - | - | - | - |
| 1777651731 | 21.67° C | 28% | 1012.7 hPa | - | - | - | - |
| 1777650831 | 22.22° C | 27% | 1012.9 hPa | - | - | - | - |
| 1777649931 | 22.78° C | 25% | 1012.9 hPa | - | - | - | - |
| 1777649031 | 22.78° C | 24% | 1013 hPa | - | - | - | - |
| 1777648131 | 23.33° C | 24% | 1013 hPa | - | - | - | - |
| 1777647231 | 23.89° C | 24% | 1013.1 hPa | - | - | - | - |
| 1777646331 | 23.89° C | 23% | 1013.2 hPa | - | - | - | - |
| 1777645431 | 23.33° C | 24% | 1013.4 hPa | - | - | - | - |
| 1777644531 | 23.89° C | 23% | 1013.5 hPa | - | - | - | - |
| 1777643630 | 24.44° C | 23% | 1013.5 hPa | - | - | - | - |
| 1777642730 | 25° C | 21% | 1013.4 hPa | - | - | - | - |
| 1777641830 | 24.44° C | 21% | 1013.6 hPa | - | - | - | - |
| 1777640930 | 23.89° C | 22% | 1013.7 hPa | - | - | - | - |
| 1777639130 | 23.33° C | 25% | 1014 hPa | - | - | - | - |
| 1777638230 | 23.89° C | 27% | 1014.1 hPa | - | - | - | - |
| 1777637330 | 22.78° C | 29% | 1014.3 hPa | - | - | - | - |
| 1777636430 | 23.33° C | 28% | 1014.4 hPa | - | - | - | - |
| 1777635530 | 22.78° C | 29% | 1014.4 hPa | - | - | - | - |
| 1777634629 | 22.78° C | 30% | 1014.5 hPa | - | - | - | - |
| 1777633729 | 22.78° C | 29% | 1014.6 hPa | - | - | - | - |
| 1777632829 | 22.22° C | 32% | 1014.6 hPa | - | - | - | - |
| 1777631929 | 22.22° C | 33% | 1014.7 hPa | - | - | - | - |
| 1777631029 | 21.67° C | 32% | 1014.8 hPa | - | - | - | - |
| 1777630129 | 21.11° C | 33% | 1015 hPa | - | - | - | - |
* Rain since midnight (hover to see other rain measurements)
** Current wind speed in m/s (hover to see current wind gust speed)